Terminal Aerodrome Forecast
Issued by NWS

Home | Current Version | Previous Version | Text Only | Print | Product List | Glossary Off
Versions: 1 2 3 4 5 6 7 8 9 10 11 12 13 14 15 16 17 18 19 20 21 22 23 24 25 26 27 28 29 30 31 32

000
FTUS43 KGRB 221055 AAA
TAFRHI
TAF AMD
KRHI 221055Z 2211/2306 26012G17KT P6SM OVC010
      TEMPO 2211/2214 5SM -SHRA BR OVC006
     FM221500 25010G18KT P6SM VCSH BKN020
     FM222300 25007KT P6SM SCT025 BKN035
     FM230500 27004KT P6SM BKN040=

USA.gov is the U.S. government's official web portal to all federal, state and local government web resources and services.